Flight Track Log - Related Links

Times and Time Zones

All times are in EDT time to prevent confusion due to time zone crossing. See the N70AG flight status page for this flight to view local times or setup timezone preferences in your user account.

Time Position Orientation Groundspeed Altitude Reporting Facility
EDT Latitude Longitude Course Direction KTS MPH feet Rate Location/Type
Wed 04:07:58 PM 37.9000 -121.2500 90° East 159 183 900  Level Northern Cal TRACON
Wed 04:08:58 PM 37.9500 -121.2333 15° North 220 253 3,500 2,816 Climbing Northern Cal TRACON
Wed 04:11:14 PM 38.0472 -121.0558 55° Northeast 285 328 10,100 2,424 Climbing Oakland Center
Wed 04:12:16 PM 38.0842 -120.9481 66° East 330 380 11,500 2,000 Climbing Oakland Center
Wed 04:13:00 PM 38.1833 -120.3064 90° East  Level FlightAware Approximate
Wed 04:13:17 PM 38.1161 -120.8256 72° East 362 417 14,200  Level Oakland Center
Wed 04:14:19 PM 38.1617 -120.6739 69° East 381 438 17,200 2,585 Climbing Oakland Center
Wed 04:15:20 PM 38.1989 -120.5394 71° East 397 457 19,500 2,195 Climbing Oakland Center
Wed 04:16:22 PM 38.2378 -120.4008 70° East 412 474 21,700 2,146 Climbing Oakland Center
Wed 04:17:23 PM 38.2767 -120.2561 71° East 430 495 23,900 2,098 Climbing Oakland Center
Wed 04:18:25 PM 38.3108 -120.1042 74° East 448 516 26,000 2,098 Climbing Oakland Center
Wed 04:19:26 PM 38.3392 -119.9492 77° East 451 519 28,200 2,213 Climbing Oakland Center
Wed 04:20:27 PM 38.3708 -119.7947 75° East 452 520 30,500 1,366 Climbing Oakland Center
Wed 04:21:29 PM 38.4028 -119.6367 75° East 459 528 31,000 244 Climbing Oakland Center
Wed 04:22:30 PM 38.4378 -119.4589 76° East 482 555 31,000  Level Oakland Center
Wed 04:23:32 PM 38.4706 -119.2919 76° East 487 560 31,000  Level Oakland Center
Wed 04:24:33 PM 38.5097 -119.0919 76° East 486 559 31,000  Level Oakland Center
Wed 04:25:35 PM 38.5411 -118.9164 77° East 502 578 31,000  Level Oakland Center
Wed 04:26:36 PM 38.5739 -118.7419 76° East 507 583 31,000 492 Level Oakland Center
Wed 04:27:37 PM 38.5972 -118.5697 80° East 497 572 32,000 1,610 Climbing Oakland Center
Wed 04:28:39 PM 38.6069 -118.3950 86° East 498 573 34,300 1,854 Climbing Oakland Center
Wed 04:29:40 PM 38.6186 -118.2214 85° East 494 568 35,800 1,463 Climbing Oakland Center
Wed 04:30:42 PM 38.6281 -118.0408 86° East 496 571 37,300 1,220 Climbing Oakland Center
Wed 04:31:43 PM 38.6461 -117.8608 83° East 506 582 38,300 976 Climbing Oakland Center
Wed 04:32:45 PM 38.6739 -117.6803 79° East 513 590 39,300 976 Climbing Oakland Center
Wed 04:33:46 PM 38.7000 -117.4939 80° East 522 601 40,300 829 Climbing Oakland Center
Wed 04:34:48 PM 38.7267 -117.3069 80° East 528 608 41,000 365 Climbing Oakland Center
Wed 04:35:41 PM 38.7522 -117.1200 80° East 530 610 41,000  Level Salt Lake Center
Wed 04:36:43 PM 38.7792 -116.9314 80° East 533 613 41,000  Level Salt Lake Center
Wed 04:37:45 PM 38.8053 -116.7392 80° East 543 625 41,000  Level Salt Lake Center
Wed 04:38:53 PM 38.8383 -116.5022 80° East 555 639 41,000  Level Oakland Center
Wed 04:39:49 PM 38.8581 -116.3447 81° East 559 643 41,000  Level Salt Lake Center
Wed 04:40:51 PM 38.8883 -116.1089 81° East 556 640 41,000  Level Salt Lake Center
Wed 04:41:53 PM 38.9147 -115.9131 80° East 557 641 41,000  Level Salt Lake Center
Wed 04:42:55 PM 38.9397 -115.7164 81° East 557 641 41,000  Level Salt Lake Center
Wed 04:43:57 PM 38.9633 -115.5200 81° East 555 639 41,000  Level Salt Lake Center
Wed 04:45:00 PM 38.9864 -115.3343 81° East  Level FlightAware Approximate
Wed 04:46:01 PM 39.0167 -115.0997 81° East 561 646 41,000  Level Salt Lake Center
Wed 04:47:03 PM 39.0403 -114.9033 81° East 558 642 41,000  Level Salt Lake Center
Wed 04:48:05 PM 39.0639 -114.7056 81° East 559 643 41,000  Level Salt Lake Center
Wed 04:49:06 PM 39.0872 -114.5072 81° East 560 644 41,000  Level Salt Lake Center
Wed 04:50:08 PM 39.1100 -114.3086 82° East 560 644 41,000  Level Salt Lake Center
Wed 04:51:10 PM 39.1328 -114.1083 82° East 564 649 41,000  Level Salt Lake Center
Wed 04:52:13 PM 39.1564 -113.9075 81° East 567 652 41,000  Level Salt Lake Center
Wed 04:53:14 PM 39.1819 -113.6678 82° East 563 648 41,000  Level Salt Lake Center
Wed 04:54:16 PM 39.2039 -113.4656 82° East 568 654 41,000  Level Salt Lake Center
Wed 04:55:18 PM 39.2247 -113.2647 82° East 566 651 41,000  Level Salt Lake Center
Wed 04:56:20 PM 39.2461 -113.0642 82° East 565 650 41,000  Level Salt Lake Center
Wed 04:58:24 PM 39.2867 -112.6603 82° East 568 654 41,000  Level Salt Lake Center
Wed 04:59:26 PM 39.3136 -112.4494 81° East 565 650 41,000  Level Salt Lake Center
Wed 05:00:28 PM 39.3503 -112.2533 76° East 565 650 41,000  Level Salt Lake Center
Wed 05:01:29 PM 39.3936 -112.0175 77° East 566 651 41,000  Level Salt Lake Center
Wed 05:02:31 PM 39.4292 -111.8206 77° East 566 651 41,000  Level Salt Lake Center
Wed 05:03:33 PM 39.4650 -111.6256 77° East 561 646 41,000  Level Salt Lake Center
Wed 05:04:35 PM 39.5008 -111.4281 77° East 565 650 41,000  Level Salt Lake Center
Wed 05:05:37 PM 39.5389 -111.2097 77° East 562 647 41,000  Level Salt Lake Center
Wed 05:06:39 PM 39.5722 -111.0200 77° East 564 649 41,000  Level Salt Lake Center
Wed 05:07:41 PM 39.6108 -110.7989 77° East 562 647 41,000  Level Salt Lake Center
Wed 05:08:43 PM 39.6433 -110.6094 77° East 562 647 41,000  Level Salt Lake Center
Wed 05:09:45 PM 39.6803 -110.3881 78° East 562 647 41,000  Level Salt Lake Center
Wed 05:10:47 PM 39.7122 -110.1989 78° East 559 643 41,000  Level Salt Lake Center
Wed 05:11:49 PM 39.7433 -110.0067 78° East 566 651 41,000  Level Salt Lake Center
Wed 05:12:51 PM 39.7808 -109.7833 78° East 567 652 41,000  Level Salt Lake Center
Wed 05:14:18 PM 39.8267 -109.4956 78° East 561 646 41,000  Level Denver Center
Wed 05:15:20 PM 39.8569 -109.3050 78° East 562 647 41,000  Level Denver Center
Wed 05:15:57 PM 39.8767 -109.1800 78° East 558 642 41,000  Level Salt Lake Center
Wed 05:16:59 PM 39.9122 -108.9586 78° East 556 640 41,000  Level Salt Lake Center
Wed 05:18:01 PM 39.9419 -108.7672 78° East 556 640 41,000  Level Salt Lake Center
Wed 05:19:03 PM 39.9714 -108.5750 79° East 558 642 41,000  Level Salt Lake Center
Wed 05:20:05 PM 40.0050 -108.3503 79° East 560 644 41,000  Level Salt Lake Center
Wed 05:21:08 PM 40.0328 -108.1594 79° East 559 643 41,000  Level Salt Lake Center
Wed 05:22:10 PM 40.0658 -107.9397 79° East 555 639 41,000  Level Salt Lake Center
Wed 05:23:36 PM 40.1278 -107.6614 74° East 554 638 41,000  Level Denver Center
Wed 05:24:38 PM 40.1708 -107.4775 73° East 553 636 41,000  Level Denver Center
Wed 05:25:40 PM 40.2194 -107.2606 74° East 555 639 41,000  Level Denver Center
Wed 05:26:42 PM 40.2614 -107.0756 73° East 555 639 41,000  Level Denver Center
Wed 05:27:44 PM 40.3100 -106.8589 74° East 555 639 41,000  Level Denver Center
Wed 05:28:46 PM 40.3511 -106.6811 73° East 555 639 41,000  Level Denver Center
Wed 05:29:49 PM 40.3994 -106.4553 74° East 557 641 41,000  Level Denver Center
Wed 05:30:51 PM 40.4411 -106.2681 74° East 557 641 41,000  Level Denver Center
Wed 05:31:53 PM 40.4819 -106.0753 74° East 555 639 41,000  Level Denver Center
Wed 05:32:55 PM 40.5239 -105.8800 74° East 556 640 41,000  Level Denver Center
Wed 05:33:57 PM 40.5639 -105.6875 75° East 548 631 41,000  Level Denver Center
Wed 05:34:59 PM 40.6119 -105.4553 75° East 549 632 41,000  Level Denver Center
Wed 05:36:01 PM 40.6522 -105.2633 74° East 545 627 41,000  Level Denver Center
Wed 05:37:03 PM 40.6911 -105.0717 75° East 541 623 41,000  Level Denver Center
Wed 05:38:05 PM 40.7311 -104.8786 75° East 543 625 41,000  Level Denver Center
Wed 05:39:07 PM 40.7689 -104.6844 76° East 543 625 41,000  Level Denver Center
Wed 05:40:09 PM 40.8081 -104.4903 75° East 546 628 41,000  Level Denver Center
Wed 05:41:11 PM 40.8531 -104.2594 75° East 542 624 41,000  Level Denver Center
Wed 05:42:13 PM 40.8917 -104.0667 75° East 543 625 41,000  Level Denver Center
Wed 05:43:15 PM 40.9278 -103.8747 76° East 541 623 41,000  Level Denver Center
Wed 05:44:17 PM 40.9656 -103.6819 75° East 541 623 41,000  Level Denver Center
Wed 05:45:19 PM 41.0056 -103.4683 76° East 538 619 41,000  Level Denver Center
Wed 05:47:24 PM 41.0803 -103.0689 76° East 541 623 41,000  Level Denver Center
Wed 05:48:26 PM 41.1061 -102.8728 80° East 543 625 41,000  Level Denver Center
Wed 05:49:28 PM 41.1194 -102.6847 85° East 537 618 41,000  Level Denver Center
Wed 05:50:30 PM 41.1367 -102.4633 84° East 540 621 41,000  Level Denver Center
Wed 05:51:32 PM 41.1511 -102.2742 84° East 539 620 41,000  Level Denver Center
Wed 05:52:34 PM 41.1664 -102.0536 85° East 540 621 41,000  Level Denver Center
Wed 05:53:36 PM 41.1803 -101.8619 84° East 543 625 41,000  Level Denver Center
Wed 05:54:38 PM 41.1967 -101.6397 84° East 541 623 41,000  Level Denver Center
Wed 05:55:40 PM 41.2106 -101.4489 84° East 541 623 41,000  Level Denver Center
Wed 05:56:42 PM 41.2233 -101.2583 85° East 541 623 41,000  Level Denver Center
Wed 05:57:44 PM 41.2375 -101.0369 85° East 536 617 41,000  Level Denver Center
Wed 05:58:46 PM 41.2500 -100.8461 85° East 536 617 41,000  Level Denver Center
Wed 05:59:48 PM 41.2639 -100.6219 85° East 539 620 41,000  Level Denver Center
Wed 06:00:50 PM 41.2753 -100.4311 85° East 539 620 41,000  Level Denver Center
Wed 06:01:52 PM 41.2875 -100.2075 86° East 540 621 41,000  Level Denver Center
Wed 06:02:55 PM 41.2981 -100.0158 86° East 542 624 41,000  Level Denver Center
Wed 06:03:57 PM 41.3081 -99.8244 86° East 542 624 41,000  Level Denver Center
Wed 06:04:59 PM 41.3197 -99.6031 86° East 539 620 41,000  Level Denver Center
Wed 06:06:01 PM 41.3303 -99.3953 86° East 536 617 41,000  Level Denver Center
Wed 06:07:03 PM 41.3394 -99.1956 86° East 537 618 41,000  Level Denver Center
Wed 06:07:37 PM 41.3453 -99.0722 86° East 538 619 41,000  Level Minneapolis Center
Wed 06:08:39 PM 41.3533 -98.8744 87° East 537 618 41,000  Level Minneapolis Center
Wed 06:09:41 PM 41.3564 -98.6767 89° East 537 618 41,000  Level Minneapolis Center
Wed 06:10:43 PM 41.3597 -98.4775 89° East 538 619 41,000  Level Minneapolis Center
Wed 06:11:45 PM 41.3633 -98.2669 89° East 542 624 41,000  Level Minneapolis Center
Wed 06:12:47 PM 41.3656 -98.0764 89° East 540 621 41,000  Level Minneapolis Center
Wed 06:13:49 PM 41.3681 -97.8389 89° East 536 617 41,000  Level Minneapolis Center
Wed 06:14:51 PM 41.3692 -97.6403 90° East 537 618 41,000  Level Minneapolis Center
Wed 06:15:53 PM 41.3708 -97.4414 89° East 538 619 41,000  Level Minneapolis Center
Wed 06:16:56 PM 41.3725 -97.2414 89° East 540 621 41,000  Level Minneapolis Center
Wed 06:17:58 PM 41.3731 -97.0439 90° East 536 617 41,000  Level Minneapolis Center
Wed 06:19:00 PM 41.3742 -96.8492 89° East 530 610 41,000  Level Minneapolis Center
Wed 06:20:02 PM 41.3742 -96.6236 90° East 512 589 41,000  Level Minneapolis Center
Wed 06:21:04 PM 41.3744 -96.4325 90° East 515 593 41,000  Level Minneapolis Center
Wed 06:22:06 PM 41.3714 -96.2269 91° East 520 598 41,000  Level Minneapolis Center
Wed 06:23:08 PM 41.3669 -96.0372 92° East 516 594 41,000  Level Minneapolis Center
Wed 06:24:10 PM 41.3714 -95.8461 88° East 517 595 41,000  Level Minneapolis Center
Wed 06:25:12 PM 41.3697 -95.6586 91° East 509 586 41,000  Level Minneapolis Center
Wed 06:26:14 PM 41.3669 -95.4694 91° East 498 573 41,000  Level Minneapolis Center
Wed 06:27:16 PM 41.3653 -95.2844 91° East 499 574 41,000  Level Minneapolis Center
Wed 06:28:19 PM 41.3633 -95.0997 91° East 500 575 41,000  Level Minneapolis Center
Wed 06:29:21 PM 41.3592 -94.8789 91° East 498 573 41,000  Level Minneapolis Center
Wed 06:30:23 PM 41.3558 -94.6972 91° East 495 570 41,000  Level Minneapolis Center
Wed 06:31:25 PM 41.3536 -94.5150 91° East 493 567 41,000  Level Minneapolis Center
Wed 06:32:27 PM 41.3492 -94.3331 92° East 492 566 41,000  Level Minneapolis Center
Wed 06:33:29 PM 41.3456 -94.1469 91° East 493 567 41,000  Level Minneapolis Center
Wed 06:34:31 PM 41.3417 -93.9669 92° East 490 564 41,000  Level Minneapolis Center
Wed 06:35:33 PM 41.3375 -93.7864 92° East 492 566 41,000  Level Minneapolis Center
Wed 06:36:35 PM 41.3319 -93.5700 92° East 490 564 41,000  Level Minneapolis Center
Wed 06:37:37 PM 41.3283 -93.3889 91° East 492 566 41,000  Level Minneapolis Center
Wed 06:38:39 PM 41.3231 -93.2089 92° East 491 565 41,000  Level Minneapolis Center
Wed 06:39:41 PM 41.3189 -93.0314 92° East 486 559 41,000 -144 Level Minneapolis Center
Wed 06:40:44 PM 41.3122 -92.8528 93° East 486 559 40,700 -672 Descending Minneapolis Center
Wed 06:41:46 PM 41.3061 -92.6786 93° East 481 554 39,600 -1,306 Descending Minneapolis Center
Wed 06:42:48 PM 41.3000 -92.4736 92° East 471 542 38,000 -1,597 Descending Minneapolis Center
Wed 06:43:50 PM 41.2936 -92.2997 93° East 471 542 36,300 -1,645 Descending Minneapolis Center
Wed 06:44:52 PM 41.2867 -92.1183 93° East 480 552 34,600 -1,645 Descending Minneapolis Center
Wed 06:45:54 PM 41.2797 -91.9267 93° East 495 570 32,900 -1,597 Descending Minneapolis Center
Wed 06:46:56 PM 41.2717 -91.7164 93° East 508 585 31,300 -2,146 Descending Minneapolis Center
Wed 06:48:11 PM 41.2581 -91.4606 94° East 532 612 28,000 -2,391 Descending Chicago Center
Wed 06:49:14 PM 41.2489 -91.2631 93° East 517 595 25,800 -1,920 Descending Chicago Center
Wed 06:50:16 PM 41.2411 -91.0789 93° East 501 577 24,000 -1,258 Descending Chicago Center
Wed 06:51:18 PM 41.2325 -90.8989 94° East 489 563 23,200 -1,403 Descending Chicago Center
Wed 06:52:20 PM 41.2233 -90.7247 94° East 478 550 21,100 -1,984 Descending Chicago Center
Wed 06:53:22 PM 41.2153 -90.5553 94° East 461 531 19,100 -1,016 Descending Chicago Center
Wed 06:54:24 PM 41.2039 -90.3589 94° East 442 509 19,000 -48 Descending Chicago Center
Wed 06:55:26 PM 41.1619 -90.2231 112° Southeast 401 461 19,000 -435 Level Chicago Center
Wed 06:56:28 PM 41.1194 -90.0856 112° Southeast 401 461 18,100 -919 Descending Chicago Center
Wed 06:57:30 PM 41.0811 -89.9511 111° Southeast 393 452 17,100 -528 Descending Chicago Center
Wed 06:58:33 PM 41.0425 -89.8192 111° Southeast 386 444 17,000 -48 Descending Chicago Center
Wed 06:59:35 PM 41.0050 -89.6856 110° East 384 442 17,000  Level Chicago Center
Wed 07:00:37 PM 41.0003 -89.5497 93° East 377 434 17,000 -581 Level Chicago Center
Wed 07:01:39 PM 41.0308 -89.4175 73° East 371 427 15,800 -1,632 Descending Chicago Center
Wed 07:02:42 PM 41.0647 -89.2650 74° East 358 412 13,600 -1,887 Descending Chicago Center
Wed 07:03:43 PM 41.0906 -89.1469 74° East 348 400 11,900 -1,268 Descending Chicago Center
Wed 07:04:45 PM 41.1167 -89.0275 74° East 340 391 11,000 -726 Descending Chicago Center
Wed 07:05:47 PM 41.1603 -88.9211 61° Northeast 328 377 10,400 -823 Descending Chicago Center
Wed 07:06:49 PM 41.2267 -88.8169 50° Northeast 311 358 9,300 -912 Descending Chicago Center
Wed 07:07:52 PM 41.2783 -88.7353 50° Northeast 294 338 8,500 -768 Descending Chicago Center
Wed 07:08:54 PM 41.3292 -88.6578 49° Northeast 283 326 7,700 -774 Descending Chicago Center
Wed 07:09:56 PM 41.3769 -88.5831 50° Northeast 270 311 6,900 -677 Descending Chicago Center
Wed 07:10:58 PM 41.4167 -88.5167 51° Northeast 239 275 6,300 -435 Descending Chicago Center
Wed 07:12:00 PM 41.4397 -88.4222 72° East 224 258 6,000 -484 Descending Chicago Center
Wed 07:13:02 PM 41.4608 -88.3433 70° East 226 260 5,300 -968 Descending Chicago Center
Wed 07:14:04 PM 41.4814 -88.2672 70° East 221 254 4,000 -629 Descending Chicago Center
Wed 07:15:06 PM 41.5028 -88.1914 69° East 219 252 4,000  Level Chicago Center
Wed 07:16:08 PM 41.5242 -88.1139 70° East 219 252 4,000  Level Chicago Center
Wed 07:17:10 PM 41.5569 -88.0381 60° Northeast 232 267 4,000  Level Chicago Center
Wed 07:18:12 PM 41.6072 -87.9761 43° Northeast 243 280 4,000 -96 Level Chicago Center
Wed 07:19:15 PM 41.6647 -87.9047 43° Northeast 240 276 3,800 -672 Descending Chicago Center
Wed 07:20:17 PM 41.7075 -87.8503 44° Northeast 228 262 2,600 -1,016 Descending Chicago Center
Wed 07:21:19 PM 41.7408 -87.8083 43° Northeast 191 220 1,700 -823 Descending Chicago Center
Wed 07:22:21 PM 41.7697 -87.7722 43° Northeast 164 189 900 -774 Descending Chicago Center
Wed 07:24:00 PM 41.7833 -87.7500 42° Northeast  Level FlightAware Approximate

Login

Don't have an account? Register now (free) for customized features, flight alerts, and more!